sensor_id;sensor_type;location;lat;lon;timestamp;P1;durP1;ratioP1;P2;durP2;ratioP2
35632;SDS011;21754;48.216;-1.628;2023-02-28T00:01:18;6.00;;;2.13;;
35632;SDS011;21754;48.216;-1.628;2023-02-28T00:03:45;2.92;;;2.65;;
35632;SDS011;21754;48.216;-1.628;2023-02-28T00:06:11;4.65;;;2.55;;
35632;SDS011;21754;48.216;-1.628;2023-02-28T00:08:37;5.68;;;2.63;;
35632;SDS011;21754;48.216;-1.628;2023-02-28T00:11:04;9.50;;;3.33;;
35632;SDS011;21754;48.216;-1.628;2023-02-28T00:13:31;6.97;;;2.80;;
35632;SDS011;21754;48.216;-1.628;2023-02-28T00:15:58;2.08;;;1.98;;
35632;SDS011;21754;48.216;-1.628;2023-02-28T00:18:24;2.70;;;2.47;;
35632;SDS011;21754;48.216;-1.628;2023-02-28T00:20:50;3.33;;;2.63;;
35632;SDS011;21754;48.216;-1.628;2023-02-28T00:23:16;7.80;;;3.10;;
35632;SDS011;21754;48.216;-1.628;2023-02-28T00:25:42;2.75;;;2.38;;
35632;SDS011;21754;48.216;-1.628;2023-02-28T00:28:08;10.80;;;3.58;;
35632;SDS011;21754;48.216;-1.628;2023-02-28T00:30:34;5.88;;;2.63;;
35632;SDS011;21754;48.216;-1.628;2023-02-28T00:33:00;12.27;;;3.13;;
35632;SDS011;21754;48.216;-1.628;2023-02-28T00:35:26;4.00;;;2.60;;
35632;SDS011;21754;48.216;-1.628;2023-02-28T00:37:52;2.63;;;1.98;;
35632;SDS011;21754;48.216;-1.628;2023-02-28T00:40:18;3.38;;;2.72;;
35632;SDS011;21754;48.216;-1.628;2023-02-28T00:42:44;3.50;;;2.63;;
35632;SDS011;21754;48.216;-1.628;2023-02-28T00:45:10;2.95;;;2.75;;
35632;SDS011;21754;48.216;-1.628;2023-02-28T00:47:36;9.02;;;3.30;;
35632;SDS011;21754;48.216;-1.628;2023-02-28T00:50:02;5.50;;;2.33;;
35632;SDS011;21754;48.216;-1.628;2023-02-28T00:52:29;2.42;;;2.00;;
35632;SDS011;21754;48.216;-1.628;2023-02-28T00:54:55;3.72;;;2.80;;
35632;SDS011;21754;48.216;-1.628;2023-02-28T00:57:21;3.33;;;2.75;;
35632;SDS011;21754;48.216;-1.628;2023-02-28T00:59:47;3.25;;;2.58;;
35632;SDS011;21754;48.216;-1.628;2023-02-28T01:02:13;7.80;;;2.97;;
35632;SDS011;21754;48.216;-1.628;2023-02-28T01:04:39;4.25;;;2.50;;
35632;SDS011;21754;48.216;-1.628;2023-02-28T01:07:05;6.57;;;2.30;;
35632;SDS011;21754;48.216;-1.628;2023-02-28T01:09:31;5.55;;;2.55;;
35632;SDS011;21754;48.216;-1.628;2023-02-28T01:11:57;4.95;;;2.47;;
35632;SDS011;21754;48.216;-1.628;2023-02-28T01:14:24;2.85;;;2.58;;
35632;SDS011;21754;48.216;-1.628;2023-02-28T01:16:50;2.42;;;1.98;;
35632;SDS011;21754;48.216;-1.628;2023-02-28T01:19:16;3.35;;;1.83;;
35632;SDS011;21754;48.216;-1.628;2023-02-28T01:21:42;9.75;;;2.83;;
35632;SDS011;21754;48.216;-1.628;2023-02-28T01:24:08;4.55;;;3.25;;
35632;SDS011;21754;48.216;-1.628;2023-02-28T01:26:34;2.85;;;2.53;;
35632;SDS011;21754;48.216;-1.628;2023-02-28T01:29:00;2.55;;;2.35;;
35632;SDS011;21754;48.216;-1.628;2023-02-28T01:31:26;3.63;;;2.80;;
35632;SDS011;21754;48.216;-1.628;2023-02-28T01:33:52;6.07;;;2.50;;
35632;SDS011;21754;48.216;-1.628;2023-02-28T01:36:23;11.82;;;3.15;;
35632;SDS011;21754;48.216;-1.628;2023-02-28T01:38:49;3.92;;;2.42;;
35632;SDS011;21754;48.216;-1.628;2023-02-28T01:41:20;9.10;;;2.88;;
35632;SDS011;21754;48.216;-1.628;2023-02-28T01:46:12;7.13;;;3.72;;
35632;SDS011;21754;48.216;-1.628;2023-02-28T01:48:40;4.85;;;2.58;;
35632;SDS011;21754;48.216;-1.628;2023-02-28T01:51:11;6.38;;;3.15;;
35632;SDS011;21754;48.216;-1.628;2023-02-28T01:53:41;4.25;;;2.67;;
35632;SDS011;21754;48.216;-1.628;2023-02-28T01:56:07;5.00;;;3.70;;
35632;SDS011;21754;48.216;-1.628;2023-02-28T01:58:34;2.53;;;2.10;;
35632;SDS011;21754;48.216;-1.628;2023-02-28T02:01:01;2.25;;;2.05;;
35632;SDS011;21754;48.216;-1.628;2023-02-28T02:03:27;3.13;;;2.83;;
35632;SDS011;21754;48.216;-1.628;2023-02-28T02:05:54;8.55;;;2.95;;
35632;SDS011;21754;48.216;-1.628;2023-02-28T02:08:21;2.40;;;2.05;;
35632;SDS011;21754;48.216;-1.628;2023-02-28T02:10:48;4.00;;;3.22;;
35632;SDS011;21754;48.216;-1.628;2023-02-28T02:36:38;2.58;;;2.17;;
35632;SDS011;21754;48.216;-1.628;2023-02-28T02:44:10;6.07;;;2.85;;
35632;SDS011;21754;48.216;-1.628;2023-02-28T02:46:39;3.90;;;2.53;;
35632;SDS011;21754;48.216;-1.628;2023-02-28T02:49:08;2.95;;;2.65;;
35632;SDS011;21754;48.216;-1.628;2023-02-28T02:51:35;4.47;;;2.97;;
35632;SDS011;21754;48.216;-1.628;2023-02-28T02:54:03;4.97;;;3.22;;
35632;SDS011;21754;48.216;-1.628;2023-02-28T02:56:31;4.32;;;2.35;;
35632;SDS011;21754;48.216;-1.628;2023-02-28T02:59:00;3.55;;;3.30;;
35632;SDS011;21754;48.216;-1.628;2023-02-28T03:01:29;4.40;;;2.88;;
35632;SDS011;21754;48.216;-1.628;2023-02-28T03:03:57;2.60;;;2.42;;
35632;SDS011;21754;48.216;-1.628;2023-02-28T03:06:25;5.07;;;2.60;;
35632;SDS011;21754;48.216;-1.628;2023-02-28T03:08:51;7.22;;;3.40;;
35632;SDS011;21754;48.216;-1.628;2023-02-28T03:11:18;7.82;;;3.92;;
35632;SDS011;21754;48.216;-1.628;2023-02-28T03:13:57;6.68;;;3.65;;
35632;SDS011;21754;48.216;-1.628;2023-02-28T03:22:12;3.67;;;2.60;;
35632;SDS011;21754;48.216;-1.628;2023-02-28T03:28:11;6.30;;;3.85;;
35632;SDS011;21754;48.216;-1.628;2023-02-28T03:30:49;3.83;;;3.00;;
35632;SDS011;21754;48.216;-1.628;2023-02-28T03:33:22;6.53;;;4.65;;
35632;SDS011;21754;48.216;-1.628;2023-02-28T03:35:59;5.57;;;3.42;;
35632;SDS011;21754;48.216;-1.628;2023-02-28T03:38:35;6.28;;;3.13;;
35632;SDS011;21754;48.216;-1.628;2023-02-28T03:43:43;10.35;;;3.15;;
35632;SDS011;21754;48.216;-1.628;2023-02-28T03:46:14;3.30;;;2.80;;
35632;SDS011;21754;48.216;-1.628;2023-02-28T03:48:45;9.48;;;3.38;;
35632;SDS011;21754;48.216;-1.628;2023-02-28T03:51:21;4.00;;;2.72;;
35632;SDS011;21754;48.216;-1.628;2023-02-28T03:53:50;4.78;;;3.40;;
35632;SDS011;21754;48.216;-1.628;2023-02-28T03:56:19;3.53;;;2.55;;
35632;SDS011;21754;48.216;-1.628;2023-02-28T03:59:05;3.90;;;3.20;;
35632;SDS011;21754;48.216;-1.628;2023-02-28T04:03:58;5.75;;;3.22;;
35632;SDS011;21754;48.216;-1.628;2023-02-28T04:06:25;11.13;;;3.47;;
35632;SDS011;21754;48.216;-1.628;2023-02-28T04:08:52;4.00;;;3.50;;
35632;SDS011;21754;48.216;-1.628;2023-02-28T04:13:44;4.55;;;3.42;;
35632;SDS011;21754;48.216;-1.628;2023-02-28T04:16:10;5.97;;;3.28;;
35632;SDS011;21754;48.216;-1.628;2023-02-28T04:18:36;10.65;;;3.38;;
35632;SDS011;21754;48.216;-1.628;2023-02-28T04:21:02;7.57;;;5.05;;
35632;SDS011;21754;48.216;-1.628;2023-02-28T04:23:29;12.77;;;3.83;;
35632;SDS011;21754;48.216;-1.628;2023-02-28T04:25:55;5.22;;;4.70;;
35632;SDS011;21754;48.216;-1.628;2023-02-28T04:28:21;5.05;;;2.95;;
35632;SDS011;21754;48.216;-1.628;2023-02-28T04:30:47;4.25;;;3.53;;
35632;SDS011;21754;48.216;-1.628;2023-02-28T04:33:19;4.25;;;3.30;;
35632;SDS011;21754;48.216;-1.628;2023-02-28T04:35:45;6.53;;;4.03;;
35632;SDS011;21754;48.216;-1.628;2023-02-28T04:38:11;3.85;;;2.85;;
35632;SDS011;21754;48.216;-1.628;2023-02-28T04:40:37;3.50;;;3.20;;
35632;SDS011;21754;48.216;-1.628;2023-02-28T04:43:03;4.20;;;3.80;;
35632;SDS011;21754;48.216;-1.628;2023-02-28T04:45:29;3.40;;;3.20;;
35632;SDS011;21754;48.216;-1.628;2023-02-28T04:47:57;5.25;;;3.85;;
35632;SDS011;21754;48.216;-1.628;2023-02-28T04:50:23;3.45;;;3.25;;
35632;SDS011;21754;48.216;-1.628;2023-02-28T04:52:49;4.72;;;4.10;;
35632;SDS011;21754;48.216;-1.628;2023-02-28T04:55:15;7.57;;;4.10;;
35632;SDS011;21754;48.216;-1.628;2023-02-28T04:57:41;4.28;;;3.63;;
35632;SDS011;21754;48.216;-1.628;2023-02-28T05:00:08;4.63;;;3.72;;
35632;SDS011;21754;48.216;-1.628;2023-02-28T05:02:36;4.85;;;4.35;;
35632;SDS011;21754;48.216;-1.628;2023-02-28T05:05:02;3.63;;;3.33;;
35632;SDS011;21754;48.216;-1.628;2023-02-28T05:07:28;10.80;;;4.22;;
35632;SDS011;21754;48.216;-1.628;2023-02-28T05:09:54;10.90;;;4.72;;
35632;SDS011;21754;48.216;-1.628;2023-02-28T05:12:20;5.50;;;4.00;;
35632;SDS011;21754;48.216;-1.628;2023-02-28T05:14:46;7.18;;;4.82;;
35632;SDS011;21754;48.216;-1.628;2023-02-28T05:17:12;6.13;;;4.63;;
35632;SDS011;21754;48.216;-1.628;2023-02-28T05:19:38;4.28;;;3.88;;
35632;SDS011;21754;48.216;-1.628;2023-02-28T05:22:04;4.82;;;3.85;;
35632;SDS011;21754;48.216;-1.628;2023-02-28T05:24:30;4.38;;;3.97;;
35632;SDS011;21754;48.216;-1.628;2023-02-28T05:26:56;4.25;;;3.85;;
35632;SDS011;21754;48.216;-1.628;2023-02-28T05:29:23;4.05;;;3.72;;
35632;SDS011;21754;48.216;-1.628;2023-02-28T05:31:49;8.10;;;5.35;;
35632;SDS011;21754;48.216;-1.628;2023-02-28T05:34:15;5.75;;;4.18;;
35632;SDS011;21754;48.216;-1.628;2023-02-28T05:36:41;5.30;;;4.50;;
35632;SDS011;21754;48.216;-1.628;2023-02-28T05:39:07;10.50;;;5.15;;
35632;SDS011;21754;48.216;-1.628;2023-02-28T05:41:37;6.93;;;4.13;;
35632;SDS011;21754;48.216;-1.628;2023-02-28T05:44:03;5.20;;;4.70;;
35632;SDS011;21754;48.216;-1.628;2023-02-28T05:46:29;5.20;;;4.68;;
35632;SDS011;21754;48.216;-1.628;2023-02-28T05:48:55;4.68;;;3.78;;
35632;SDS011;21754;48.216;-1.628;2023-02-28T05:51:24;10.18;;;5.05;;
35632;SDS011;21754;48.216;-1.628;2023-02-28T05:53:50;5.85;;;4.40;;
35632;SDS011;21754;48.216;-1.628;2023-02-28T05:56:16;9.88;;;4.88;;
35632;SDS011;21754;48.216;-1.628;2023-02-28T05:58:42;10.60;;;6.57;;
35632;SDS011;21754;48.216;-1.628;2023-02-28T06:03:53;9.85;;;5.32;;
35632;SDS011;21754;48.216;-1.628;2023-02-28T06:06:19;7.45;;;5.03;;
35632;SDS011;21754;48.216;-1.628;2023-02-28T06:08:45;11.20;;;5.47;;
35632;SDS011;21754;48.216;-1.628;2023-02-28T06:11:11;5.20;;;4.68;;
35632;SDS011;21754;48.216;-1.628;2023-02-28T06:13:37;8.20;;;6.60;;
35632;SDS011;21754;48.216;-1.628;2023-02-28T06:16:03;15.07;;;5.05;;
35632;SDS011;21754;48.216;-1.628;2023-02-28T06:18:29;9.40;;;4.78;;
35632;SDS011;21754;48.216;-1.628;2023-02-28T06:20:55;6.63;;;4.95;;
35632;SDS011;21754;48.216;-1.628;2023-02-28T06:23:21;8.57;;;5.07;;
35632;SDS011;21754;48.216;-1.628;2023-02-28T06:25:47;7.22;;;5.90;;
35632;SDS011;21754;48.216;-1.628;2023-02-28T06:28:14;9.13;;;5.45;;
35632;SDS011;21754;48.216;-1.628;2023-02-28T06:30:40;7.60;;;6.47;;
35632;SDS011;21754;48.216;-1.628;2023-02-28T06:33:06;8.00;;;5.80;;
35632;SDS011;21754;48.216;-1.628;2023-02-28T06:35:32;10.95;;;4.43;;
35632;SDS011;21754;48.216;-1.628;2023-02-28T06:37:58;8.05;;;5.15;;
35632;SDS011;21754;48.216;-1.628;2023-02-28T06:40:24;14.35;;;5.90;;
35632;SDS011;21754;48.216;-1.628;2023-02-28T06:42:50;7.07;;;5.57;;
35632;SDS011;21754;48.216;-1.628;2023-02-28T06:45:16;7.68;;;5.18;;
35632;SDS011;21754;48.216;-1.628;2023-02-28T06:47:42;8.63;;;4.80;;
35632;SDS011;21754;48.216;-1.628;2023-02-28T06:50:09;9.98;;;5.28;;
35632;SDS011;21754;48.216;-1.628;2023-02-28T06:52:36;7.15;;;5.95;;
35632;SDS011;21754;48.216;-1.628;2023-02-28T06:55:03;9.60;;;5.57;;
35632;SDS011;21754;48.216;-1.628;2023-02-28T06:57:29;9.90;;;5.43;;
35632;SDS011;21754;48.216;-1.628;2023-02-28T06:59:57;8.60;;;6.82;;
35632;SDS011;21754;48.216;-1.628;2023-02-28T07:02:23;9.38;;;5.10;;
35632;SDS011;21754;48.216;-1.628;2023-02-28T07:04:48;15.23;;;7.80;;
35632;SDS011;21754;48.216;-1.628;2023-02-28T07:07:15;6.95;;;4.72;;
35632;SDS011;21754;48.216;-1.628;2023-02-28T07:09:42;9.87;;;6.03;;
35632;SDS011;21754;48.216;-1.628;2023-02-28T07:12:08;6.95;;;5.60;;
35632;SDS011;21754;48.216;-1.628;2023-02-28T07:14:36;13.20;;;5.65;;
35632;SDS011;21754;48.216;-1.628;2023-02-28T07:17:02;10.88;;;5.88;;
35632;SDS011;21754;48.216;-1.628;2023-02-28T07:19:28;7.57;;;5.93;;
35632;SDS011;21754;48.216;-1.628;2023-02-28T07:21:54;15.50;;;6.78;;
35632;SDS011;21754;48.216;-1.628;2023-02-28T07:24:20;7.22;;;6.13;;
35632;SDS011;21754;48.216;-1.628;2023-02-28T07:26:48;8.60;;;6.30;;
35632;SDS011;21754;48.216;-1.628;2023-02-28T07:29:14;12.90;;;6.03;;
35632;SDS011;21754;48.216;-1.628;2023-02-28T07:31:40;12.15;;;6.90;;
35632;SDS011;21754;48.216;-1.628;2023-02-28T07:34:06;12.07;;;6.82;;
35632;SDS011;21754;48.216;-1.628;2023-02-28T07:36:32;7.65;;;6.55;;
35632;SDS011;21754;48.216;-1.628;2023-02-28T07:38:59;8.27;;;6.05;;
35632;SDS011;21754;48.216;-1.628;2023-02-28T07:41:25;11.02;;;7.55;;
35632;SDS011;21754;48.216;-1.628;2023-02-28T07:43:55;24.33;;;7.68;;
35632;SDS011;21754;48.216;-1.628;2023-02-28T07:46:24;10.15;;;6.93;;
35632;SDS011;21754;48.216;-1.628;2023-02-28T07:48:50;9.40;;;5.97;;
35632;SDS011;21754;48.216;-1.628;2023-02-28T07:51:16;11.90;;;6.22;;
35632;SDS011;21754;48.216;-1.628;2023-02-28T07:53:42;14.38;;;7.85;;
35632;SDS011;21754;48.216;-1.628;2023-02-28T07:56:08;9.93;;;6.97;;
35632;SDS011;21754;48.216;-1.628;2023-02-28T07:58:35;9.65;;;6.97;;
35632;SDS011;21754;48.216;-1.628;2023-02-28T08:01:05;11.82;;;7.30;;
35632;SDS011;21754;48.216;-1.628;2023-02-28T08:03:31;13.00;;;7.10;;
35632;SDS011;21754;48.216;-1.628;2023-02-28T08:05:57;10.90;;;8.50;;
35632;SDS011;21754;48.216;-1.628;2023-02-28T08:08:23;9.13;;;7.05;;
35632;SDS011;21754;48.216;-1.628;2023-02-28T08:10:57;11.13;;;7.07;;
35632;SDS011;21754;48.216;-1.628;2023-02-28T08:13:23;7.30;;;5.93;;
35632;SDS011;21754;48.216;-1.628;2023-02-28T08:15:49;11.88;;;9.07;;
35632;SDS011;21754;48.216;-1.628;2023-02-28T08:18:15;10.40;;;7.57;;
35632;SDS011;21754;48.216;-1.628;2023-02-28T08:20:41;9.45;;;6.68;;
35632;SDS011;21754;48.216;-1.628;2023-02-28T08:23:07;11.23;;;7.72;;
35632;SDS011;21754;48.216;-1.628;2023-02-28T08:25:33;12.68;;;8.32;;
35632;SDS011;21754;48.216;-1.628;2023-02-28T08:28:00;11.98;;;7.72;;
35632;SDS011;21754;48.216;-1.628;2023-02-28T08:30:26;15.73;;;7.43;;
35632;SDS011;21754;48.216;-1.628;2023-02-28T08:32:52;13.98;;;7.65;;
35632;SDS011;21754;48.216;-1.628;2023-02-28T08:35:19;10.57;;;7.72;;
35632;SDS011;21754;48.216;-1.628;2023-02-28T08:37:47;11.65;;;7.90;;
35632;SDS011;21754;48.216;-1.628;2023-02-28T08:42:43;11.98;;;7.03;;
35632;SDS011;21754;48.216;-1.628;2023-02-28T08:45:09;14.18;;;8.13;;
35632;SDS011;21754;48.216;-1.628;2023-02-28T08:47:35;14.32;;;9.38;;
35632;SDS011;21754;48.216;-1.628;2023-02-28T08:50:01;13.95;;;7.68;;
35632;SDS011;21754;48.216;-1.628;2023-02-28T08:52:27;11.27;;;7.15;;
35632;SDS011;21754;48.216;-1.628;2023-02-28T08:54:53;13.60;;;7.63;;
35632;SDS011;21754;48.216;-1.628;2023-02-28T08:57:19;12.85;;;8.75;;
35632;SDS011;21754;48.216;-1.628;2023-02-28T08:59:45;13.20;;;7.70;;
35632;SDS011;21754;48.216;-1.628;2023-02-28T09:02:14;14.75;;;8.85;;
35632;SDS011;21754;48.216;-1.628;2023-02-28T09:04:41;12.43;;;8.35;;
35632;SDS011;21754;48.216;-1.628;2023-02-28T09:07:07;19.83;;;9.05;;
35632;SDS011;21754;48.216;-1.628;2023-02-28T09:09:33;14.43;;;8.90;;
35632;SDS011;21754;48.216;-1.628;2023-02-28T09:11:59;19.75;;;9.38;;
35632;SDS011;21754;48.216;-1.628;2023-02-28T09:14:25;16.95;;;8.48;;
35632;SDS011;21754;48.216;-1.628;2023-02-28T09:16:51;16.10;;;11.15;;
35632;SDS011;21754;48.216;-1.628;2023-02-28T09:19:17;14.65;;;9.18;;
35632;SDS011;21754;48.216;-1.628;2023-02-28T09:21:43;12.35;;;7.82;;
35632;SDS011;21754;48.216;-1.628;2023-02-28T09:24:09;11.77;;;7.65;;
35632;SDS011;21754;48.216;-1.628;2023-02-28T09:26:38;12.40;;;8.02;;
35632;SDS011;21754;48.216;-1.628;2023-02-28T09:29:04;17.92;;;9.00;;
35632;SDS011;21754;48.216;-1.628;2023-02-28T09:31:30;13.57;;;8.70;;
35632;SDS011;21754;48.216;-1.628;2023-02-28T09:33:56;15.23;;;9.30;;
35632;SDS011;21754;48.216;-1.628;2023-02-28T09:36:23;13.63;;;8.45;;
35632;SDS011;21754;48.216;-1.628;2023-02-28T09:38:49;17.05;;;7.65;;
35632;SDS011;21754;48.216;-1.628;2023-02-28T09:43:47;12.20;;;7.80;;
35632;SDS011;21754;48.216;-1.628;2023-02-28T09:49:16;11.27;;;7.68;;
35632;SDS011;21754;48.216;-1.628;2023-02-28T09:54:18;10.15;;;6.53;;
35632;SDS011;21754;48.216;-1.628;2023-02-28T09:56:47;11.80;;;7.43;;
35632;SDS011;21754;48.216;-1.628;2023-02-28T10:02:00;10.40;;;6.00;;
35632;SDS011;21754;48.216;-1.628;2023-02-28T10:05:12;9.80;;;5.63;;
35632;SDS011;21754;48.216;-1.628;2023-02-28T10:07:46;5.60;;;4.85;;
35632;SDS011;21754;48.216;-1.628;2023-02-28T10:12:56;5.15;;;3.95;;
35632;SDS011;21754;48.216;-1.628;2023-02-28T10:15:24;7.38;;;4.65;;
35632;SDS011;21754;48.216;-1.628;2023-02-28T10:18:00;4.15;;;3.00;;
35632;SDS011;21754;48.216;-1.628;2023-02-28T10:20:30;4.10;;;3.35;;
35632;SDS011;21754;48.216;-1.628;2023-02-28T10:25:32;6.45;;;5.38;;
35632;SDS011;21754;48.216;-1.628;2023-02-28T10:30:36;8.55;;;5.93;;
35632;SDS011;21754;48.216;-1.628;2023-02-28T10:33:08;11.55;;;4.93;;
35632;SDS011;21754;48.216;-1.628;2023-02-28T10:35:47;4.35;;;3.95;;
35632;SDS011;21754;48.216;-1.628;2023-02-28T10:38:17;5.38;;;4.20;;
35632;SDS011;21754;48.216;-1.628;2023-02-28T10:40:46;6.53;;;4.72;;
35632;SDS011;21754;48.216;-1.628;2023-02-28T10:45:37;8.15;;;5.80;;
35632;SDS011;21754;48.216;-1.628;2023-02-28T10:50:32;7.80;;;4.78;;
35632;SDS011;21754;48.216;-1.628;2023-02-28T10:55:39;6.55;;;5.03;;
35632;SDS011;21754;48.216;-1.628;2023-02-28T11:01:01;4.95;;;3.90;;
35632;SDS011;21754;48.216;-1.628;2023-02-28T11:03:34;3.85;;;3.42;;
35632;SDS011;21754;48.216;-1.628;2023-02-28T11:06:07;4.88;;;3.53;;
35632;SDS011;21754;48.216;-1.628;2023-02-28T11:08:48;3.42;;;3.13;;
35632;SDS011;21754;48.216;-1.628;2023-02-28T11:11:16;4.95;;;3.10;;
35632;SDS011;21754;48.216;-1.628;2023-02-28T11:13:44;6.65;;;4.47;;
35632;SDS011;21754;48.216;-1.628;2023-02-28T11:16:12;2.85;;;2.50;;
35632;SDS011;21754;48.216;-1.628;2023-02-28T11:18:42;3.10;;;2.40;;
35632;SDS011;21754;48.216;-1.628;2023-02-28T11:21:18;3.53;;;3.25;;
35632;SDS011;21754;48.216;-1.628;2023-02-28T11:23:45;2.17;;;1.98;;
35632;SDS011;21754;48.216;-1.628;2023-02-28T11:26:11;4.25;;;2.72;;
35632;SDS011;21754;48.216;-1.628;2023-02-28T11:28:38;4.72;;;2.70;;
35632;SDS011;21754;48.216;-1.628;2023-02-28T11:33:40;2.53;;;2.03;;
35632;SDS011;21754;48.216;-1.628;2023-02-28T11:36:10;2.92;;;1.92;;
35632;SDS011;21754;48.216;-1.628;2023-02-28T11:38:37;2.88;;;2.15;;
35632;SDS011;21754;48.216;-1.628;2023-02-28T11:48:58;2.22;;;1.80;;
35632;SDS011;21754;48.216;-1.628;2023-02-28T11:51:28;3.70;;;1.90;;
35632;SDS011;21754;48.216;-1.628;2023-02-28T11:54:06;2.15;;;1.95;;
35632;SDS011;21754;48.216;-1.628;2023-02-28T11:59:08;2.72;;;2.50;;
35632;SDS011;21754;48.216;-1.628;2023-02-28T12:11:53;5.13;;;2.35;;
35632;SDS011;21754;48.216;-1.628;2023-02-28T12:27:23;3.65;;;2.20;;
35632;SDS011;21754;48.216;-1.628;2023-02-28T12:32:18;2.22;;;1.77;;
35632;SDS011;21754;48.216;-1.628;2023-02-28T12:35:01;5.68;;;2.17;;
35632;SDS011;21754;48.216;-1.628;2023-02-28T12:37:33;8.80;;;2.22;;
35632;SDS011;21754;48.216;-1.628;2023-02-28T12:40:04;2.00;;;1.90;;
35632;SDS011;21754;48.216;-1.628;2023-02-28T12:42:42;2.22;;;2.03;;
35632;SDS011;21754;48.216;-1.628;2023-02-28T12:47:37;3.03;;;2.28;;
35632;SDS011;21754;48.216;-1.628;2023-02-28T12:50:07;1.65;;;1.55;;
35632;SDS011;21754;48.216;-1.628;2023-02-28T13:00:49;10.93;;;2.05;;
35632;SDS011;21754;48.216;-1.628;2023-02-28T13:11:33;2.20;;;1.70;;
35632;SDS011;21754;48.216;-1.628;2023-02-28T13:14:05;2.03;;;1.90;;
35632;SDS011;21754;48.216;-1.628;2023-02-28T13:19:16;2.35;;;2.15;;
35632;SDS011;21754;48.216;-1.628;2023-02-28T13:21:43;2.53;;;1.85;;
35632;SDS011;21754;48.216;-1.628;2023-02-28T13:24:10;2.30;;;2.10;;
35632;SDS011;21754;48.216;-1.628;2023-02-28T13:32:18;3.30;;;2.72;;
35632;SDS011;21754;48.216;-1.628;2023-02-28T13:34:27;3.20;;;2.53;;
35632;SDS011;21754;48.216;-1.628;2023-02-28T13:37:22;2.33;;;2.08;;
35632;SDS011;21754;48.216;-1.628;2023-02-28T13:49:53;2.58;;;1.80;;
35632;SDS011;21754;48.216;-1.628;2023-02-28T13:52:20;2.25;;;2.08;;
35632;SDS011;21754;48.216;-1.628;2023-02-28T13:57:52;1.70;;;1.60;;
35632;SDS011;21754;48.216;-1.628;2023-02-28T14:05:21;2.50;;;2.22;;
35632;SDS011;21754;48.216;-1.628;2023-02-28T14:07:57;4.47;;;2.08;;
35632;SDS011;21754;48.216;-1.628;2023-02-28T14:10:28;2.90;;;2.67;;
35632;SDS011;21754;48.216;-1.628;2023-02-28T14:18:03;2.53;;;2.42;;
35632;SDS011;21754;48.216;-1.628;2023-02-28T14:20:31;2.15;;;1.95;;
35632;SDS011;21754;48.216;-1.628;2023-02-28T14:23:06;7.78;;;2.38;;
35632;SDS011;21754;48.216;-1.628;2023-02-28T14:25:41;3.40;;;2.60;;
35632;SDS011;21754;48.216;-1.628;2023-02-28T14:30:57;4.55;;;2.55;;
35632;SDS011;21754;48.216;-1.628;2023-02-28T14:33:35;3.70;;;2.72;;
35632;SDS011;21754;48.216;-1.628;2023-02-28T14:38:36;3.03;;;2.83;;
35632;SDS011;21754;48.216;-1.628;2023-02-28T14:41:06;3.63;;;2.30;;
35632;SDS011;21754;48.216;-1.628;2023-02-28T14:43:47;8.95;;;3.45;;
35632;SDS011;21754;48.216;-1.628;2023-02-28T14:46:13;3.58;;;2.38;;
35632;SDS011;21754;48.216;-1.628;2023-02-28T14:48:39;4.15;;;2.97;;
35632;SDS011;21754;48.216;-1.628;2023-02-28T14:51:06;6.75;;;3.28;;
35632;SDS011;21754;48.216;-1.628;2023-02-28T14:53:35;6.10;;;3.40;;
35632;SDS011;21754;48.216;-1.628;2023-02-28T14:56:02;3.22;;;2.90;;
35632;SDS011;21754;48.216;-1.628;2023-02-28T14:58:29;5.35;;;3.50;;
35632;SDS011;21754;48.216;-1.628;2023-02-28T15:00:56;4.70;;;3.17;;
35632;SDS011;21754;48.216;-1.628;2023-02-28T15:03:35;12.85;;;3.72;;
35632;SDS011;21754;48.216;-1.628;2023-02-28T15:06:03;7.05;;;4.30;;
35632;SDS011;21754;48.216;-1.628;2023-02-28T15:08:30;11.07;;;4.50;;
35632;SDS011;21754;48.216;-1.628;2023-02-28T15:11:01;5.72;;;4.43;;
35632;SDS011;21754;48.216;-1.628;2023-02-28T15:13:39;6.57;;;3.97;;
35632;SDS011;21754;48.216;-1.628;2023-02-28T15:16:12;3.15;;;2.85;;
35632;SDS011;21754;48.216;-1.628;2023-02-28T15:23:45;9.50;;;4.10;;
35632;SDS011;21754;48.216;-1.628;2023-02-28T15:26:13;7.03;;;4.03;;
35632;SDS011;21754;48.216;-1.628;2023-02-28T15:28:40;5.22;;;4.13;;
35632;SDS011;21754;48.216;-1.628;2023-02-28T15:31:17;4.13;;;3.70;;
35632;SDS011;21754;48.216;-1.628;2023-02-28T15:36:14;15.55;;;5.25;;
35632;SDS011;21754;48.216;-1.628;2023-02-28T15:38:42;6.05;;;4.13;;
35632;SDS011;21754;48.216;-1.628;2023-02-28T15:41:25;8.25;;;5.05;;
35632;SDS011;21754;48.216;-1.628;2023-02-28T15:46:36;11.70;;;5.10;;
35632;SDS011;21754;48.216;-1.628;2023-02-28T15:49:02;6.32;;;5.55;;
35632;SDS011;21754;48.216;-1.628;2023-02-28T15:54:01;5.00;;;4.50;;
35632;SDS011;21754;48.216;-1.628;2023-02-28T15:57:13;7.50;;;5.72;;
35632;SDS011;21754;48.216;-1.628;2023-02-28T15:59:21;8.23;;;6.28;;
35632;SDS011;21754;48.216;-1.628;2023-02-28T16:02:01;6.40;;;5.65;;
35632;SDS011;21754;48.216;-1.628;2023-02-28T16:04:28;8.60;;;6.00;;
35632;SDS011;21754;48.216;-1.628;2023-02-28T16:09:25;8.38;;;6.00;;
35632;SDS011;21754;48.216;-1.628;2023-02-28T16:11:53;8.32;;;6.15;;
35632;SDS011;21754;48.216;-1.628;2023-02-28T16:14:21;11.02;;;6.20;;
35632;SDS011;21754;48.216;-1.628;2023-02-28T16:16:53;6.97;;;5.85;;
35632;SDS011;21754;48.216;-1.628;2023-02-28T16:19:19;5.87;;;5.23;;
35632;SDS011;21754;48.216;-1.628;2023-02-28T16:21:46;8.23;;;6.20;;
35632;SDS011;21754;48.216;-1.628;2023-02-28T16:24:12;8.85;;;6.88;;
35632;SDS011;21754;48.216;-1.628;2023-02-28T16:26:42;10.20;;;6.90;;
35632;SDS011;21754;48.216;-1.628;2023-02-28T16:29:12;11.23;;;6.05;;
35632;SDS011;21754;48.216;-1.628;2023-02-28T16:31:39;7.32;;;6.45;;
35632;SDS011;21754;48.216;-1.628;2023-02-28T16:34:05;14.25;;;6.90;;
35632;SDS011;21754;48.216;-1.628;2023-02-28T16:36:31;9.05;;;6.80;;
35632;SDS011;21754;48.216;-1.628;2023-02-28T16:38:57;8.57;;;6.55;;
35632;SDS011;21754;48.216;-1.628;2023-02-28T16:41:24;13.30;;;7.38;;
35632;SDS011;21754;48.216;-1.628;2023-02-28T16:43:52;6.72;;;5.25;;
35632;SDS011;21754;48.216;-1.628;2023-02-28T16:46:19;8.13;;;6.55;;
35632;SDS011;21754;48.216;-1.628;2023-02-28T16:48:46;17.85;;;7.13;;
35632;SDS011;21754;48.216;-1.628;2023-02-28T16:51:16;8.48;;;6.43;;
35632;SDS011;21754;48.216;-1.628;2023-02-28T16:53:42;10.13;;;6.72;;
35632;SDS011;21754;48.216;-1.628;2023-02-28T16:56:16;7.97;;;6.35;;
35632;SDS011;21754;48.216;-1.628;2023-02-28T16:58:43;14.77;;;8.38;;
35632;SDS011;21754;48.216;-1.628;2023-02-28T17:01:09;10.68;;;7.95;;
35632;SDS011;21754;48.216;-1.628;2023-02-28T17:03:35;14.10;;;7.93;;
35632;SDS011;21754;48.216;-1.628;2023-02-28T17:06:01;13.95;;;8.43;;
35632;SDS011;21754;48.216;-1.628;2023-02-28T17:08:28;10.30;;;8.05;;
35632;SDS011;21754;48.216;-1.628;2023-02-28T17:10:54;12.02;;;7.72;;
35632;SDS011;21754;48.216;-1.628;2023-02-28T17:13:20;11.25;;;7.00;;
35632;SDS011;21754;48.216;-1.628;2023-02-28T17:15:46;10.02;;;7.88;;
35632;SDS011;21754;48.216;-1.628;2023-02-28T17:18:17;15.93;;;7.95;;
35632;SDS011;21754;48.216;-1.628;2023-02-28T17:20:46;9.88;;;7.15;;
35632;SDS011;21754;48.216;-1.628;2023-02-28T17:23:13;13.13;;;7.78;;
35632;SDS011;21754;48.216;-1.628;2023-02-28T17:25:39;9.65;;;6.55;;
35632;SDS011;21754;48.216;-1.628;2023-02-28T17:28:05;12.27;;;8.43;;
35632;SDS011;21754;48.216;-1.628;2023-02-28T17:30:31;11.18;;;7.45;;
35632;SDS011;21754;48.216;-1.628;2023-02-28T17:32:58;13.23;;;8.35;;
35632;SDS011;21754;48.216;-1.628;2023-02-28T17:35:24;12.93;;;8.27;;
35632;SDS011;21754;48.216;-1.628;2023-02-28T17:37:51;13.18;;;8.50;;
35632;SDS011;21754;48.216;-1.628;2023-02-28T17:40:22;12.20;;;9.40;;
35632;SDS011;21754;48.216;-1.628;2023-02-28T17:42:48;9.73;;;7.75;;
35632;SDS011;21754;48.216;-1.628;2023-02-28T17:45:16;9.18;;;6.68;;
35632;SDS011;21754;48.216;-1.628;2023-02-28T17:47:43;9.02;;;6.53;;